Time;durP1;ratioP1;P1;durP2;ratioP2;P2;SDS_P1;SDS_P2;PMS_P1;PMS_P2;Temp;Humidity;BMP_temperature;BMP_pressure;BME280_temperature;BME280_humidity;BME280_pressure;Samples;Min_cycle;Max_cycle;Signal;HPM_P1;HPM_P2
2021/04/04 00:00:13;;;;;;;2.58;1.77;;;;;;;11.99;55.95;101315.08;1764223;81;21299;-47
2021/04/04 00:02:42;;;;;;;2.22;1.60;;;;;;;12.02;55.86;101318.92;1769413;81;21156;-49
2021/04/04 00:05:11;;;;;;;3.47;2.20;;;;;;;12.03;55.71;101315.44;1765256;81;21153;-46
2021/04/04 00:07:41;;;;;;;2.50;2.00;;;;;;;12.03;55.62;101319.35;1766387;81;21581;-46
2021/04/04 00:10:10;;;;;;;2.70;2.12;;;;;;;12.02;55.62;101315.01;1766230;81;21287;-51
2021/04/04 00:12:38;;;;;;;7.08;3.15;;;;;;;12.00;55.64;101309.83;1765040;81;21129;-48
2021/04/04 00:15:12;;;;;;;5.53;2.75;;;;;;;11.98;55.66;101302.91;1762813;81;21299;-46
2021/04/04 00:17:41;;;;;;;5.95;3.42;;;;;;;11.99;55.86;101307.26;1762822;81;21177;-46
2021/04/04 00:20:16;;;;;;;2.55;2.20;;;;;;;12.00;55.98;101305.05;1763322;81;21620;-49
2021/04/04 00:22:45;;;;;;;2.05;1.57;;;;;;;12.00;56.02;101298.53;1762805;81;21148;-52
2021/04/04 00:25:14;;;;;;;4.42;2.42;;;;;;;12.03;56.00;101303.70;1763325;80;21164;-50
2021/04/04 00:27:43;;;;;;;2.77;1.98;;;;;;;12.03;56.22;101299.79;1763515;81;21160;-48
2021/04/04 00:30:17;;;;;;;3.83;2.22;;;;;;;12.02;56.17;101295.01;1764205;81;21149;-46
2021/04/04 00:32:45;;;;;;;3.17;1.60;;;;;;;12.02;56.28;101291.53;1763430;81;21310;-49
2021/04/04 00:35:15;;;;;;;3.92;2.10;;;;;;;12.00;56.37;101292.01;1768604;81;21153;-50
2021/04/04 00:37:45;;;;;;;3.35;1.70;;;;;;;11.99;56.44;101291.61;1765354;81;21145;-50
2021/04/04 00:40:26;;;;;;;1.35;1.15;;;;;;;11.98;55.81;101298.56;1770867;80;21384;-49
2021/04/04 00:42:54;;;;;;;1.87;1.37;;;;;;;11.99;55.59;101296.83;1763958;80;21129;-48
2021/04/04 00:45:24;;;;;;;1.77;1.10;;;;;;;12.03;54.78;101291.97;1768950;80;21136;-46
2021/04/04 00:47:52;;;;;;;1.42;1.10;;;;;;;12.06;54.41;101282.32;1768140;80;21581;-46
2021/04/04 00:50:24;;;;;;;2.77;1.15;;;;;;;11.96;54.38;101278.17;1768508;80;21176;-49
2021/04/04 00:52:52;;;;;;;1.10;1.00;;;;;;;11.91;54.84;101280.47;1756121;80;21148;-46
2021/04/04 00:55:22;;;;;;;1.52;1.10;;;;;;;11.88;54.88;101285.72;1765718;80;21597;-46
2021/04/04 00:57:51;;;;;;;2.67;1.30;;;;;;;11.85;55.01;101284.49;1771726;80;21164;-46
2021/04/04 01:00:22;;;;;;;2.95;1.70;;;;;;;11.85;55.10;101271.45;1769968;80;21140;-49
2021/04/04 01:02:51;;;;;;;4.35;2.37;;;;;;;11.84;55.27;101257.55;1768843;80;21176;-46
2021/04/04 01:05:25;;;;;;;5.20;2.42;;;;;;;11.82;55.52;101255.86;1774373;80;21601;-47
2021/04/04 01:07:55;;;;;;;4.75;3.02;;;;;;;11.80;55.58;101268.06;1769809;80;21557;-46
2021/04/04 01:10:22;;;;;;;8.83;4.05;;;;;;;11.79;55.73;101272.84;1763936;80;21172;-46
2021/04/04 01:13:22;;;;;;;9.38;4.47;;;;;;;11.79;56.08;101262.41;1773653;80;21297;-47
2021/04/04 01:16:07;;;;;;;4.78;2.58;;;;;;;11.79;56.16;101251.98;1770738;80;21291;-46
2021/04/04 01:18:40;;;;;;;4.08;2.45;;;;;;;11.80;56.26;101262.84;1733523;82;21306;-50
2021/04/04 01:21:19;;;;;;;6.30;2.75;;;;;;;11.80;56.39;101271.97;1714094;83;21205;-48
2021/04/04 01:24:19;;;;;;;6.78;3.40;;;;;;;11.78;56.28;101268.53;1714008;83;21307;-49
2021/04/04 01:27:00;;;;;;;5.80;2.40;;;;;;;11.75;56.22;101265.97;1711665;83;21686;-49
2021/04/04 01:29:28;;;;;;;4.95;2.30;;;;;;;11.73;56.32;101263.83;1712917;83;21743;-49
2021/04/04 01:31:56;;;;;;;4.53;2.17;;;;;;;11.73;56.39;101256.02;1714414;83;21158;-46
2021/04/04 01:34:26;;;;;;;4.47;2.30;;;;;;;11.71;56.38;101258.66;1712347;83;21182;-48
2021/04/04 01:36:58;;;;;;;7.85;3.50;;;;;;;11.71;56.64;101266.48;1711392;83;21824;-49
2021/04/04 01:39:28;;;;;;;2.80;2.00;;;;;;;11.73;56.65;101267.74;1716013;82;21193;-46
2021/04/04 01:41:56;;;;;;;4.42;2.30;;;;;;;11.71;56.63;101270.83;1716462;82;21173;-47
2021/04/04 01:44:24;;;;;;;3.47;2.05;;;;;;;11.69;56.64;101267.38;1720036;83;21192;-49
2021/04/04 01:46:54;;;;;;;4.80;2.22;;;;;;;11.71;56.49;101259.09;1723629;83;21169;-47
2021/04/04 01:49:22;;;;;;;4.65;1.70;;;;;;;11.73;56.49;101258.62;1684965;83;21232;-47
2021/04/04 01:51:50;;;;;;;1.82;1.30;;;;;;;11.73;56.62;101267.74;1698060;84;21201;-46
2021/04/04 01:54:18;;;;;;;3.20;2.12;;;;;;;11.66;56.68;101270.03;1724087;82;21194;-51
2021/04/04 01:56:46;;;;;;;4.47;1.62;;;;;;;11.63;56.91;101264.86;1712550;83;21166;-52
2021/04/04 01:59:15;;;;;;;3.77;1.98;;;;;;;11.63;56.80;101259.64;1774120;80;21274;-49
2021/04/04 02:01:46;;;;;;;3.92;1.55;;;;;;;11.60;56.89;101260.58;1760430;80;21176;-47
2021/04/04 02:04:15;;;;;;;3.02;1.50;;;;;;;11.58;56.97;101255.81;1775866;80;21164;-49
2021/04/04 02:06:44;;;;;;;1.95;1.20;;;;;;;11.59;57.08;101255.38;1775531;80;21144;-49
2021/04/04 02:09:14;;;;;;;1.92;1.15;;;;;;;11.62;56.93;101250.13;1776566;80;21148;-46
2021/04/04 02:11:45;;;;;;;1.95;1.20;;;;;;;11.63;56.75;101250.09;1776488;80;21149;-50
2021/04/04 02:14:15;;;;;;;1.12;1.00;;;;;;;11.67;56.82;101245.70;1774294;80;21163;-50
2021/04/04 02:16:49;;;;;;;1.95;1.02;;;;;;;11.67;56.40;101254.82;1772695;80;21183;-48
2021/04/04 02:19:20;;;;;;;1.75;1.12;;;;;;;11.67;56.34;101256.12;1773218;80;21160;-46
2021/04/04 02:21:49;;;;;;;1.35;1.10;;;;;;;11.66;56.18;101254.39;1773719;80;21116;-47
2021/04/04 02:24:17;;;;;;;1.87;1.47;;;;;;;11.64;55.96;101249.22;1772910;80;21148;-47
2021/04/04 02:26:46;;;;;;;1.05;0.95;;;;;;;11.63;56.24;101252.69;1768485;80;21317;-48
2021/04/04 02:29:14;;;;;;;1.52;1.00;;;;;;;11.64;56.25;101258.77;1774451;80;21167;-49
2021/04/04 02:31:44;;;;;;;1.52;1.07;;;;;;;11.64;56.09;101257.03;1772323;80;21168;-46
2021/04/04 02:34:19;;;;;;;1.90;1.17;;;;;;;11.67;56.06;101259.59;1771158;80;21160;-47
2021/04/04 02:36:46;;;;;;;2.55;1.30;;;;;;;11.66;56.00;101260.50;1773405;80;21148;-46
2021/04/04 02:39:24;;;;;;;1.90;1.00;;;;;;;11.66;56.37;101266.12;1770521;80;21204;-47
2021/04/04 02:41:54;;;;;;;3.37;1.15;;;;;;;11.64;56.36;101258.77;1759462;80;21136;-50
2021/04/04 02:44:23;;;;;;;1.70;1.10;;;;;;;11.61;56.41;101259.68;1761952;81;21129;-47
2021/04/04 02:46:54;;;;;;;1.67;1.20;;;;;;;11.63;56.42;101254.43;1769058;80;21161;-46
2021/04/04 02:49:27;;;;;;;2.42;1.05;;;;;;;11.64;56.40;101260.08;1763995;81;21153;-46
2021/04/04 02:51:54;;;;;;;1.80;1.30;;;;;;;11.64;56.19;101258.77;1762103;81;21189;-49
2021/04/04 02:54:25;;;;;;;1.85;1.20;;;;;;;11.62;56.03;101255.33;1763365;81;21322;-46
2021/04/04 02:56:54;;;;;;;2.60;1.47;;;;;;;11.56;56.39;101256.75;1763304;81;21193;-48
2021/04/04 02:59:29;;;;;;;4.05;1.40;;;;;;;11.51;56.60;101256.82;1762930;81;21469;-50
2021/04/04 03:01:59;;;;;;;2.55;1.50;;;;;;;11.48;56.54;101251.22;1757281;81;21310;-49
2021/04/04 03:04:27;;;;;;;4.00;1.67;;;;;;;11.45;56.40;101246.51;1763714;81;21157;-46
2021/04/04 03:06:55;;;;;;;2.60;1.45;;;;;;;11.42;56.29;101253.92;1767130;80;21168;-48
2021/04/04 03:09:23;;;;;;;3.72;2.22;;;;;;;11.41;56.12;101260.05;1762519;81;21184;-51
2021/04/04 03:11:51;;;;;;;3.15;1.67;;;;;;;11.40;56.04;101253.09;1763295;81;21121;-46
2021/04/04 03:14:19;;;;;;;5.10;2.75;;;;;;;11.38;55.92;101260.08;1763162;81;21155;-49
2021/04/04 03:16:47;;;;;;;5.75;2.10;;;;;;;11.33;56.08;101260.59;1764203;80;21112;-53
2021/04/04 03:19:15;;;;;;;1.67;1.30;;;;;;;11.29;56.03;101262.83;1766136;81;21291;-49
2021/04/04 03:21:42;;;;;;;1.55;1.17;;;;;;;11.26;56.25;101272.02;1766157;81;21156;-48
2021/04/04 03:24:13;;;;;;;2.08;1.37;;;;;;;11.26;56.46;101279.83;1764017;81;21190;-47
2021/04/04 03:26:41;;;;;;;3.42;1.82;;;;;;;11.26;56.60;101273.31;1763400;81;21153;-46
2021/04/04 03:29:09;;;;;;;5.30;2.35;;;;;;;11.27;56.42;101256.78;1763907;81;21303;-50
2021/04/04 03:31:38;;;;;;;3.27;1.60;;;;;;;11.28;56.46;101248.09;1755410;81;21168;-49
2021/04/04 03:34:06;;;;;;;2.10;1.40;;;;;;;11.29;56.17;101247.20;1767508;80;21306;-47
2021/04/04 03:36:33;;;;;;;3.40;1.40;;;;;;;11.26;56.20;101258.98;1759323;81;21141;-50
2021/04/04 03:39:01;;;;;;;2.20;1.12;;;;;;;11.26;56.16;101260.29;1766088;81;21153;-47
2021/04/04 03:41:29;;;;;;;2.95;1.52;;;;;;;11.25;56.00;101271.58;1766585;80;21153;-50
2021/04/04 03:43:56;;;;;;;2.35;1.10;;;;;;;11.29;55.90;101273.25;1767994;80;21180;-46
2021/04/04 03:46:26;;;;;;;2.08;1.20;;;;;;;11.30;55.84;101263.70;1778404;80;21145;-49
2021/04/04 03:48:54;;;;;;;2.27;1.50;;;;;;;11.30;56.07;101251.53;1771954;80;21145;-49
2021/04/04 03:51:26;;;;;;;2.83;1.25;;;;;;;11.29;56.21;101259.39;1771485;80;21124;-49
2021/04/04 03:53:57;;;;;;;3.08;1.32;;;;;;;11.24;56.09;101254.25;1771277;80;21609;-52
2021/04/04 03:56:30;;;;;;;1.55;1.45;;;;;;;11.20;56.42;101248.67;1772143;80;21208;-48
2021/04/04 03:59:06;;;;;;;4.45;2.10;;;;;;;11.22;56.61;101245.59;1773269;79;23139;-50
2021/04/04 04:01:35;;;;;;;119.27;58.87;;;;;;;11.16;56.62;101253.52;1737271;82;21197;-49
2021/04/04 04:04:04;;;;;;;41.48;24.43;;;;;;;11.19;56.70;101252.14;1733929;82;21139;-49
2021/04/04 04:06:35;;;;;;;14.53;7.67;;;;;;;11.20;56.62;101251.27;1738061;82;21302;-47
2021/04/04 04:09:17;;;;;;;5.97;3.42;;;;;;;11.19;56.45;101258.66;1738727;81;21589;-50
2021/04/04 04:11:47;;;;;;;3.72;2.22;;;;;;;11.17;56.61;101260.89;1737887;82;21642;-50
2021/04/04 04:14:19;;;;;;;3.35;1.82;;;;;;;11.17;56.92;101270.01;1738510;82;21603;-47
2021/04/04 04:16:47;;;;;;;5.17;2.43;;;;;;;11.16;56.98;101276.95;1739568;82;21125;-47
2021/04/04 04:19:15;;;;;;;6.05;3.80;;;;;;;11.16;56.83;101270.45;1741036;82;21752;-50
2021/04/04 04:21:43;;;;;;;10.85;8.15;;;;;;;11.15;56.81;101277.82;1741087;82;21128;-51
2021/04/04 04:24:14;;;;;;;6.33;4.78;;;;;;;11.16;56.79;101283.47;1738608;82;21255;-51
2021/04/04 04:26:43;;;;;;;15.45;10.30;;;;;;;11.15;56.99;101293.45;1718357;83;21673;-51
2021/04/04 04:29:12;;;;;;;18.50;11.20;;;;;;;11.13;57.07;101300.43;1715800;83;21189;-51
2021/04/04 04:31:43;;;;;;;11.18;7.70;;;;;;;11.14;57.25;101311.72;1691541;83;21172;-47
2021/04/04 04:34:11;;;;;;;7.53;4.90;;;;;;;11.15;57.11;101316.89;1720958;83;21190;-47
2021/04/04 04:36:39;;;;;;;2.80;2.22;;;;;;;11.18;57.28;101319.90;1699161;84;21230;-49
2021/04/04 04:39:10;;;;;;;6.15;2.47;;;;;;;11.21;57.47;101323.31;1717624;83;21155;-50
2021/04/04 04:41:42;;;;;;;3.00;1.70;;;;;;;11.23;57.42;101326.75;1702320;84;21240;-46
2021/04/04 04:44:09;;;;;;;3.50;2.08;;;;;;;11.24;57.38;101325.88;1719099;83;21220;-46
2021/04/04 04:46:37;;;;;;;3.98;1.57;;;;;;;11.22;57.37;101327.66;1689080;83;21335;-47
2021/04/04 04:49:08;;;;;;;1.60;1.37;;;;;;;11.20;57.40;101322.04;1699778;82;21139;-51
2021/04/04 04:51:36;;;;;;;2.08;1.20;;;;;;;11.20;57.54;101326.81;1717548;83;21307;-49
2021/04/04 04:54:05;;;;;;;1.72;1.37;;;;;;;11.22;57.61;101333.30;1699757;84;21314;-49
2021/04/04 04:56:38;;;;;;;3.25;1.90;;;;;;;11.23;57.59;101327.22;1717866;83;21163;-50
2021/04/04 04:59:06;;;;;;;3.90;2.60;;;;;;;11.24;57.55;101323.71;1672820;84;21188;-47
2021/04/04 05:01:38;;;;;;;6.10;5.50;;;;;;;11.26;57.45;101321.51;1709894;83;21176;-46
2021/04/04 05:04:08;;;;;;;7.25;5.95;;;;;;;11.26;57.69;101320.20;1711681;83;21233;-47
2021/04/04 05:06:36;;;;;;;27.48;21.70;;;;;;;11.26;57.79;101318.91;1702202;82;21403;-49
2021/04/04 05:09:05;;;;;;;26.33;18.95;;;;;;;11.26;57.98;101321.94;1671230;85;21124;-50
2021/04/04 05:11:34;;;;;;;13.72;10.55;;;;;;;11.26;58.02;101309.79;1671216;85;21168;-47
2021/04/04 05:14:02;;;;;;;9.53;7.42;;;;;;;11.30;58.01;101321.87;1705294;83;21267;-47
2021/04/04 05:16:31;;;;;;;12.58;8.10;;;;;;;11.34;58.06;101324.85;1704582;83;21321;-50
2021/04/04 05:18:59;;;;;;;6.58;3.62;;;;;;;11.38;57.88;101322.62;1704806;83;21191;-49
2021/04/04 05:21:28;;;;;;;4.75;2.77;;;;;;;11.40;58.04;101328.66;1695175;84;21206;-48
2021/04/04 05:24:01;;;;;;;3.15;2.85;;;;;;;11.41;57.92;101333.00;1663216;85;21219;-51
2021/04/04 05:26:40;;;;;;;4.22;2.92;;;;;;;11.44;57.77;101335.98;1727620;82;21568;-54
2021/04/04 05:29:10;;;;;;;6.22;3.10;;;;;;;11.48;57.78;101328.09;1700418;84;21199;-52
2021/04/04 05:31:51;;;;;;;5.50;4.00;;;;;;;11.52;57.73;101335.41;1688477;84;21172;-47
2021/04/04 05:34:28;;;;;;;6.28;3.90;;;;;;;11.56;57.60;101341.45;1671653;84;21225;-50
2021/04/04 05:37:04;;;;;;;4.53;2.77;;;;;;;11.60;57.55;101339.22;1803325;79;23052;-46
2021/04/04 05:39:37;;;;;;;3.17;1.90;;;;;;;11.59;57.55;101341.39;1739223;82;21180;-46
2021/04/04 05:42:08;;;;;;;5.03;4.35;;;;;;;11.60;57.62;101351.81;1643014;87;21179;-47
2021/04/04 05:44:48;;;;;;;6.12;4.53;;;;;;;11.64;57.81;101357.83;1681809;84;21160;-50
2021/04/04 05:47:47;;;;;;;2.95;2.42;;;;;;;11.69;57.80;101354.72;1681815;84;21582;-47
2021/04/04 05:50:25;;;;;;;11.83;6.50;;;;;;;11.74;57.50;101349.86;1680210;84;21145;-46
2021/04/04 05:53:04;;;;;;;4.85;2.87;;;;;;;11.76;57.35;101345.48;1685068;84;21323;-50
2021/04/04 05:55:53;;;;;;;3.40;2.15;;;;;;;11.77;56.92;101348.92;1805054;79;23410;-50
2021/04/04 05:59:05;;;;;;;36.93;15.72;;;;;;;11.71;56.84;101354.24;1788472;80;21140;-51
2021/04/04 06:01:47;;;;;;;15.15;6.75;;;;;;;11.74;56.49;101359.42;1792718;80;21156;-47
2021/04/04 06:04:46;;;;;;;6.65;3.45;;;;;;;11.76;56.71;101357.65;1738107;81;21173;-49
2021/04/04 06:07:38;;;;;;;9.65;4.37;;;;;;;11.74;56.48;101362.03;1715988;83;21164;-47
2021/04/04 06:10:12;;;;;;;9.60;4.15;;;;;;;11.70;56.53;101359.05;1715733;83;21624;-48
2021/04/04 06:12:53;;;;;;;6.80;3.85;;;;;;;11.71;56.49;101360.77;1721794;83;21172;-47
2021/04/04 06:15:47;;;;;;;4.92;2.40;;;;;;;11.70;56.59;101359.92;1728898;82;21160;-48
2021/04/04 06:18:44;;;;;;;4.65;3.00;;;;;;;11.70;56.73;101363.84;1616473;87;21385;-51
2021/04/04 06:21:32;;;;;;;7.78;4.10;;;;;;;11.71;57.07;101364.67;1660011;85;21152;-50
2021/04/04 06:24:28;;;;;;;4.10;2.50;;;;;;;11.78;56.89;101358.48;1658966;85;21167;-51
2021/04/04 06:27:31;;;;;;;5.60;2.85;;;;;;;11.85;56.66;101360.11;1653499;85;21219;-47
2021/04/04 06:33:29;;;;;;;42.58;21.68;;;;;;;11.97;56.26;101366.41;1814088;79;22963;-49
2021/04/04 06:36:31;;;;;;;8.13;4.65;;;;;;;11.93;56.01;101373.88;1725747;82;21129;-47
2021/04/04 06:39:10;;;;;;;6.25;2.98;;;;;;;11.92;55.99;101364.31;1736362;82;21208;-50
2021/04/04 06:41:52;;;;;;;2.20;1.80;;;;;;;11.95;55.98;101370.80;1727732;82;21651;-50
2021/04/04 06:44:56;;;;;;;1.87;1.75;;;;;;;11.96;55.57;101363.38;1741317;82;21330;-51
2021/04/04 06:48:04;;;;;;;1.40;1.30;;;;;;;11.92;55.65;101374.75;1731267;82;21225;-50
2021/04/04 06:50:38;;;;;;;1.75;1.10;;;;;;;11.85;55.80;101377.89;1737923;82;21372;-47
2021/04/04 06:53:50;;;;;;;1.67;1.10;;;;;;;11.78;55.63;101380.21;1730379;82;21243;-49
2021/04/04 06:56:37;;;;;;;1.32;1.17;;;;;;;11.72;55.69;101376.84;1723029;82;21452;-47
2021/04/04 06:59:16;;;;;;;4.58;3.55;;;;;;;11.66;55.64;101382.13;1725788;82;21310;-47
2021/04/04 07:01:59;;;;;;;1.87;1.40;;;;;;;11.60;55.49;101385.70;1707663;82;21172;-50
2021/04/04 07:04:33;;;;;;;1.05;0.95;;;;;;;11.57;55.67;101383.55;1736551;82;21201;-51
2021/04/04 07:07:29;;;;;;;3.08;2.77;;;;;;;11.53;55.35;101389.70;1727135;82;21598;-47
2021/04/04 07:10:35;;;;;;;2.55;2.15;;;;;;;11.50;55.57;101389.30;1732654;82;21109;-51
2021/04/04 07:13:30;;;;;;;2.47;1.90;;;;;;;11.52;55.83;101395.82;1746089;80;21151;-51
2021/04/04 07:16:49;;;;;;;9.20;7.42;;;;;;;11.54;55.90;101405.78;1762670;80;21135;-49
2021/04/04 07:19:55;;;;;;;5.40;4.08;;;;;;;11.54;55.72;101400.09;1775548;80;21179;-47
2021/04/04 07:22:35;;;;;;;9.60;7.08;;;;;;;11.58;55.74;101402.23;1771099;80;21649;-50
2021/04/04 07:25:45;;;;;;;8.53;5.90;;;;;;;11.52;55.84;101404.94;1775547;80;21220;-49
2021/04/04 07:28:42;;;;;;;6.40;5.17;;;;;;;11.53;55.88;101407.95;1777243;80;21165;-49
2021/04/04 07:31:16;;;;;;;3.12;2.83;;;;;;;11.48;55.67;101400.66;1778333;80;21183;-50
2021/04/04 07:33:51;;;;;;;16.48;11.93;;;;;;;11.42;56.02;101402.46;1657090;84;21180;-51
2021/04/04 07:37:03;;;;;;;5.17;4.37;;;;;;;11.43;55.95;101398.98;1698945;84;21603;-45
2021/04/04 07:39:51;;;;;;;6.72;5.30;;;;;;;11.46;55.86;101396.31;1799222;79;22394;-51
2021/04/04 07:43:05;;;;;;;5.58;4.78;;;;;;;11.51;55.77;101400.59;1728631;80;21380;-49
2021/04/04 07:45:54;;;;;;;3.83;3.33;;;;;;;11.48;55.66;101406.27;1734568;82;21642;-51
2021/04/04 07:48:42;;;;;;;2.10;1.90;;;;;;;11.55;55.79;101398.36;1739645;82;21195;-50
2021/04/04 07:51:26;;;;;;;4.22;3.08;;;;;;;11.56;55.78;101404.01;1738931;81;21240;-49
2021/04/04 07:54:11;;;;;;;6.08;5.28;;;;;;;11.57;56.00;101397.89;1738216;82;21248;-49
2021/04/04 07:56:55;;;;;;;5.33;4.10;;;;;;;11.65;55.92;101401.23;1810225;79;22988;-49
2021/04/04 07:59:42;;;;;;;2.77;2.22;;;;;;;11.62;56.03;101409.13;1776409;80;21144;-51
2021/04/04 08:02:21;;;;;;;3.77;2.80;;;;;;;11.62;55.71;101411.73;1768828;80;21581;-48
2021/04/04 08:04:54;;;;;;;1.77;1.57;;;;;;;11.60;56.15;101416.11;1780167;80;21600;-50
2021/04/04 08:07:54;;;;;;;2.17;1.82;;;;;;;11.60;55.96;101413.50;1776260;80;21592;-50
2021/04/04 08:10:32;;;;;;;7.42;4.28;;;;;;;11.61;55.85;101420.42;1780081;80;21156;-49
2021/04/04 08:13:22;;;;;;;4.37;3.37;;;;;;;11.56;56.16;101424.86;1780626;80;21477;-50
2021/04/04 08:16:05;;;;;;;4.62;3.30;;;;;;;11.54;56.46;101430.07;1772482;80;21195;-45
2021/04/04 08:18:34;;;;;;;3.60;2.30;;;;;;;11.59;56.52;101425.66;1774010;80;21164;-48
2021/04/04 08:21:07;;;;;;;4.12;2.70;;;;;;;11.69;55.93;101431.19;1782834;80;21124;-49
2021/04/04 08:23:58;;;;;;;5.42;4.15;;;;;;;11.75;56.02;101435.43;1779244;80;21152;-45
2021/04/04 08:26:29;;;;;;;2.83;2.62;;;;;;;11.77;56.04;101434.97;1763882;80;21156;-48
2021/04/04 08:29:10;;;;;;;1.40;1.30;;;;;;;11.79;56.08;101435.80;1776535;80;21152;-48
2021/04/04 08:31:42;;;;;;;1.57;1.35;;;;;;;11.85;55.97;101443.09;1782905;80;21577;-50
2021/04/04 08:34:25;;;;;;;2.50;1.52;;;;;;;11.95;56.15;101447.73;1774330;80;21184;-48
2021/04/04 08:37:01;;;;;;;1.30;1.20;;;;;;;12.06;56.01;101445.79;1736353;82;21134;-48
2021/04/04 08:39:31;;;;;;;2.92;1.47;;;;;;;12.13;55.89;101447.42;1738524;82;21168;-49
2021/04/04 08:42:02;;;;;;;2.85;2.40;;;;;;;12.19;55.97;101442.97;1746931;82;21138;-51
2021/04/04 08:44:53;;;;;;;70.28;37.65;;;;;;;12.24;55.86;101442.89;1743123;82;21115;-47
2021/04/04 08:47:26;;;;;;;20.97;10.85;;;;;;;12.30;55.58;101440.17;1741591;82;21288;-46
2021/04/04 08:49:54;;;;;;;10.03;6.95;;;;;;;12.39;55.40;101439.98;1743787;82;21127;-49
2021/04/04 08:52:31;;;;;;;4.70;3.40;;;;;;;12.50;55.29;101440.66;1736067;82;21138;-46
2021/04/04 08:55:00;;;;;;;2.65;1.80;;;;;;;12.56;54.97;101440.55;1732846;82;21204;-49
2021/04/04 08:57:43;;;;;;;4.55;3.02;;;;;;;12.55;54.66;101443.19;1707728;83;21601;-48
2021/04/04 09:00:14;;;;;;;3.27;2.98;;;;;;;12.52;54.72;101437.58;1698812;83;21185;-46
2021/04/04 09:02:50;;;;;;;2.47;1.92;;;;;;;12.52;54.66;101436.27;1669935;83;21222;-48
2021/04/04 09:05:27;;;;;;;2.02;1.72;;;;;;;12.58;54.82;101436.16;1810729;79;22997;-49
2021/04/04 09:08:02;;;;;;;2.15;1.50;;;;;;;12.57;54.77;101441.41;1782622;80;21604;-47
2021/04/04 09:10:34;;;;;;;1.70;1.40;;;;;;;12.61;54.64;101438.69;1786417;80;21574;-50
2021/04/04 09:13:10;;;;;;;1.10;0.70;;;;;;;12.61;54.65;101446.52;1774330;80;21279;-51
2021/04/04 09:15:55;;;;;;;0.93;0.65;;;;;;;12.64;54.50;101447.78;1768995;79;23075;-48
2021/04/04 09:18:26;;;;;;;1.25;0.80;;;;;;;12.56;54.57;101449.67;1739237;82;21113;-46
2021/04/04 09:21:07;;;;;;;1.40;0.60;;;;;;;12.52;54.57;101453.23;1736043;82;21188;-48
2021/04/04 09:23:36;;;;;;;1.25;0.65;;;;;;;12.50;54.69;101451.10;1740553;82;21144;-46
2021/04/04 09:26:08;;;;;;;1.10;0.78;;;;;;;12.45;54.69;101451.62;1716245;82;21160;-46
2021/04/04 09:28:40;;;;;;;1.50;0.70;;;;;;;12.43;55.11;101444.26;1667167;86;21581;-50
2021/04/04 09:31:24;;;;;;;;;;;;;;;12.44;55.28;101443.38;1673181;86;21599;-49
2021/04/04 09:34:14;;;;;;;3.35;0.80;;;;;;;12.49;54.95;101442.84;1771734;79;23054;-48
2021/04/04 09:36:48;;;;;;;0.85;0.80;;;;;;;12.45;54.98;101448.14;1736129;82;21177;-50
2021/04/04 09:39:25;;;;;;;1.07;0.80;;;;;;;12.46;54.87;101448.13;1739126;82;21200;-51
2021/04/04 09:41:54;;;;;;;1.45;0.90;;;;;;;12.49;54.99;101449.36;1733227;81;21217;-49
2021/04/04 09:44:29;;;;;;;1.87;1.32;;;;;;;12.54;54.94;101452.77;1740547;82;21593;-50
2021/04/04 09:46:59;;;;;;;1.62;0.90;;;;;;;12.61;55.34;101449.12;1735862;82;21160;-50
2021/04/04 09:49:43;;;;;;;2.92;1.55;;;;;;;12.70;55.03;101446.36;1744597;81;21165;-50
2021/04/04 09:52:26;;;;;;;2.75;1.37;;;;;;;12.81;54.84;101457.46;1732178;82;21169;-50
2021/04/04 09:55:10;;;;;;;0.70;0.70;;;;;;;12.88;54.56;101456.43;1735713;82;21216;-48
2021/04/04 09:57:43;;;;;;;3.60;2.27;;;;;;;12.97;53.96;101458.88;1684846;84;21345;-50
2021/04/04 10:00:27;;;;;;;3.37;1.85;;;;;;;13.04;53.55;101462.26;1810212;79;22382;-50
2021/04/04 10:02:57;;;;;;;3.33;2.00;;;;;;;12.97;53.44;101458.88;1772735;80;21171;-49
2021/04/04 10:05:29;;;;;;;3.20;1.40;;;;;;;12.95;54.18;101459.79;1776414;80;21116;-49
2021/04/04 10:08:17;;;;;;;2.10;1.90;;;;;;;13.02;54.48;101459.62;1777449;80;21172;-49
2021/04/04 10:10:51;;;;;;;3.05;1.70;;;;;;;13.15;54.57;101455.51;1714525;83;21148;-49
2021/04/04 10:13:25;;;;;;;1.22;1.10;;;;;;;13.27;53.77;101459.16;1711434;82;21108;-46
2021/04/04 10:16:01;;;;;;;1.70;1.35;;;;;;;13.34;53.62;101461.59;1812189;79;23103;-50
2021/04/04 10:18:30;;;;;;;1.55;1.10;;;;;;;13.28;53.57;101462.17;1786634;80;21636;-51
2021/04/04 10:21:00;;;;;;;7.80;1.98;;;;;;;13.32;53.23;101458.59;1745415;81;21613;-49
2021/04/04 10:23:33;;;;;;;14.70;6.42;;;;;;;13.38;53.15;101462.38;1757927;81;21152;-49
2021/04/04 10:26:09;;;;;;;9.45;4.55;;;;;;;13.43;53.36;101471.00;1719894;83;21179;-50
2021/04/04 10:28:55;;;;;;;4.60;3.35;;;;;;;13.49;53.10;101468.25;1733737;82;21164;-50
2021/04/04 10:31:24;;;;;;;2.58;1.60;;;;;;;13.50;52.98;101466.03;1732501;82;21583;-50
2021/04/04 10:34:03;;;;;;;2.40;1.00;;;;;;;13.60;52.95;101463.17;1737029;82;21162;-47
2021/04/04 10:36:31;;;;;;;2.40;1.95;;;;;;;13.59;52.72;101457.98;1735435;82;21173;-47
2021/04/04 10:38:59;;;;;;;2.72;1.82;;;;;;;13.75;52.38;101465.89;1739747;82;21322;-49
2021/04/04 10:41:32;;;;;;;2.90;2.08;;;;;;;13.81;51.87;101463.13;1742503;81;21157;-47
2021/04/04 10:44:00;;;;;;;2.58;1.90;;;;;;;13.81;51.99;101468.36;1750338;81;21739;-48
2021/04/04 10:46:30;;;;;;;2.70;2.50;;;;;;;13.79;52.08;101475.38;1756663;81;21148;-50
2021/04/04 10:49:02;;;;;;;2.62;2.42;;;;;;;13.74;51.92;101477.27;1726514;83;21154;-51
2021/04/04 10:51:31;;;;;;;6.55;3.72;;;;;;;13.67;52.17;101478.28;1745577;81;21121;-48
2021/04/04 10:54:00;;;;;;;8.63;4.40;;;;;;;13.59;52.49;101474.98;1726516;83;21340;-49
2021/04/04 10:56:31;;;;;;;6.87;4.70;;;;;;;13.53;52.56;101477.73;1744910;81;21589;-49
2021/04/04 10:58:59;;;;;;;6.72;4.53;;;;;;;13.48;52.86;101478.27;1740373;81;21124;-48
2021/04/04 11:01:32;;;;;;;4.08;2.98;;;;;;;13.42;52.67;101473.19;1757001;81;21510;-49
2021/04/04 11:06:37;;;;;;;4.00;2.83;;;;;;;13.40;52.41;101476.28;1771581;79;22254;-47
2021/04/04 11:09:07;;;;;;;7.13;4.37;;;;;;;13.39;52.28;101477.19;1703912;83;21624;-51
2021/04/04 11:11:35;;;;;;;6.92;3.47;;;;;;;13.38;52.50;101475.45;1741342;82;21608;-47
2021/04/04 11:14:04;;;;;;;3.50;2.30;;;;;;;13.35;52.42;101467.70;1741244;82;21688;-50
2021/04/04 11:16:31;;;;;;;6.30;2.65;;;;;;;13.32;52.40;101470.36;1711353;82;21581;-47
2021/04/04 11:19:08;;;;;;;5.40;2.85;;;;;;;13.29;52.41;101471.28;1738084;82;21286;-50
2021/04/04 11:21:41;;;;;;;5.12;3.02;;;;;;;13.26;52.79;101470.49;1735126;82;21152;-47
2021/04/04 11:24:19;;;;;;;13.98;6.65;;;;;;;13.24;52.80;101472.28;1738487;81;21577;-50
2021/04/04 11:26:58;;;;;;;7.22;3.27;;;;;;;13.22;53.29;101474.94;1737939;82;21145;-53
2021/04/04 11:29:28;;;;;;;3.37;2.12;;;;;;;13.24;52.81;101477.51;1656374;84;21671;-51
2021/04/04 11:31:58;;;;;;;2.05;1.77;;;;;;;13.25;52.81;101468.79;1666660;86;21203;-47
2021/04/04 11:34:36;;;;;;;3.08;1.87;;;;;;;13.30;52.83;101474.77;1652248;86;21175;-49
2021/04/04 11:37:18;;;;;;;1.55;1.45;;;;;;;13.32;52.55;101471.66;1646921;86;21199;-50
2021/04/04 11:40:23;;;;;;;1.30;1.20;;;;;;;13.23;52.48;101475.33;1648000;86;21305;-51
2021/04/04 11:43:26;;;;;;;1.62;1.40;;;;;;;13.18;52.68;101476.33;1644015;86;21215;-48
2021/04/04 11:45:54;;;;;;;2.12;1.90;;;;;;;13.12;52.70;101475.16;1638348;86;21187;-48
2021/04/04 11:48:34;;;;;;;2.00;1.72;;;;;;;13.09;52.94;101473.45;1656886;86;21167;-50
2021/04/04 11:51:18;;;;;;;1.52;1.42;;;;;;;13.04;52.79;101468.32;1643888;86;21179;-51
2021/04/04 11:53:47;;;;;;;2.58;1.80;;;;;;;13.05;52.86;101470.05;1648065;86;21212;-48
2021/04/04 11:56:49;;;;;;;2.08;1.30;;;;;;;13.08;52.90;101478.72;1656137;86;21230;-47
2021/04/04 11:59:20;;;;;;;2.75;2.22;;;;;;;13.08;52.84;101479.12;1649345;86;21297;-50
2021/04/04 12:01:49;;;;;;;2.72;1.82;;;;;;;13.05;52.70;101480.50;1662362;86;21325;-51
2021/04/04 12:04:29;;;;;;;2.52;1.75;;;;;;;13.05;52.52;101475.28;1619414;86;21128;-52
2021/04/04 12:07:11;;;;;;;2.72;1.25;;;;;;;12.97;52.61;101481.08;1651548;86;21218;-48
2021/04/04 12:09:47;;;;;;;1.32;0.93;;;;;;;12.96;52.55;101476.73;1771720;79;23486;-49